メインページ
METAR-TAF:

METAR-TAF

空港 :

アムステルダム, オランダ

アムステルダム・スキポール空港

緯度: 52-18N, 経度: 004-46E, 海抜: -4m

現時点の気象観測

当レポートは26分前の11:25(UTC)に作成
西/北西の風 12kt、西から北/北西の間で変化する
気温 21°C
湿度 56%
気圧 1024 hPa
視程10km以上
高度3500ftの雲はほとんどない

METAR: EHAM 241125Z 29012KT 260V340 9999 FEW035 21/12 Q1024 NOSIG

時間: 13:51 (11:51 UTC)

予報

当レポートは40分前の11:11(UTC)に作成
予報は24日の 12時(UTC)から 25日の 18時(UTC)まで有効
西/北西の風 12kt
視程10km以上
1,500メートル以下は雲なし、積乱雲なし
24日の 17時(UTC)から 24日の 20時(UTC)まで徐々に
北/北西の風 5kt
24日の 23時(UTC)から 25日の 02時(UTC)まで徐々に
視程: 4500m
靄, 浅い霧
確率 30% :
25日の 01時(UTC)から 25日の 05時(UTC)まで一時的に
視程: 1800m
高度400ftの雲は散在している
散在霧
25日の 05時(UTC)から 25日の 08時(UTC)まで徐々に
北/北東の風 5kt
視程10km以上
1,500メートル以下は雲なし、積乱雲なし

TAF: EHAM 241111Z 2412/2518 29012KT CAVOK BECMG 2417/2420 33005KT BECMG 2423/2502 4500 BR MIFG PROB30 TEMPO 2501/2505 1800 BCFG SCT004 BECMG 2505/2508 03005KT CAVOK

4,000以上の空港の気象観測と天気予報(METAR報とTAF報)

利用可能な観測所は地図上に黄色い丸と赤い丸で示す。

丸の上にカーソルを重ねると観測所名を参照できる。

次にクリックすると気象観測と天気予報を参照できる。

マップの切り替え:黒色「×」印の緑ボタンをクリックして拡大、「-」印の緑ボタンをクリックして縮小、緑色の三角印をクリックして隣りの地図に切り替え


METAR-TAF: